Time;durP1;ratioP1;P1;durP2;ratioP2;P2;SDS_P1;SDS_P2;PMS_P1;PMS_P2;Temp;Humidity;BMP_temperature;BMP_pressure;BME280_temperature;BME280_humidity;BME280_pressure;Samples;Min_cycle;Max_cycle;Signal;HPM_P1;HPM_P2
2022/08/13 00:00:35;;;;;;;5.35;4.25;;;;;;;20.37;69.37;94378.72;5012702;28;20292;-73
2022/08/13 00:03:03;;;;;;;5.32;4.13;;;;;;;20.40;68.95;94377.16;5012500;28;20216;-73
2022/08/13 00:05:30;;;;;;;4.85;4.00;;;;;;;20.33;69.52;94369.69;5013291;28;20229;-73
2022/08/13 00:07:57;;;;;;;5.28;3.45;;;;;;;20.31;69.69;94374.78;5000214;28;20208;-73
2022/08/13 00:10:25;;;;;;;4.57;3.42;;;;;;;20.29;70.05;94374.41;5013132;28;20205;-73
2022/08/13 00:12:57;;;;;;;3.95;3.17;;;;;;;20.24;70.49;94353.56;4999789;28;20213;-73
2022/08/13 00:15:29;;;;;;;7.63;5.53;;;;;;;20.27;70.10;94368.50;4999159;28;20273;-73
2022/08/13 00:17:58;;;;;;;8.18;5.13;;;;;;;20.15;69.12;94371.66;5013387;28;20192;-73
2022/08/13 00:20:29;;;;;;;8.10;4.45;;;;;;;20.13;70.20;94368.50;5012314;28;20791;-73
2022/08/13 00:22:58;;;;;;;6.43;5.05;;;;;;;19.96;69.72;94359.09;5012714;28;20668;-73
2022/08/13 00:25:25;;;;;;;4.28;3.33;;;;;;;19.95;69.34;94363.06;5012950;28;20208;-73
2022/08/13 00:27:57;;;;;;;4.72;3.33;;;;;;;19.85;69.63;94356.34;5012830;28;20205;-72
2022/08/13 00:30:30;;;;;;;5.32;3.72;;;;;;;19.86;69.72;94349.69;5012244;28;20201;-73
2022/08/13 00:32:59;;;;;;;5.05;3.55;;;;;;;19.84;69.62;94354.78;5012693;28;20232;-73
2022/08/13 00:35:26;;;;;;;5.35;3.78;;;;;;;19.77;70.26;94356.75;5012778;28;20216;-73
2022/08/13 00:37:55;;;;;;;5.82;4.10;;;;;;;19.74;70.16;94352.81;5013171;28;20209;-73
2022/08/13 00:40:23;;;;;;;9.70;5.50;;;;;;;19.65;70.19;94349.69;5012626;28;20212;-72
2022/08/13 00:42:52;;;;;;;6.55;5.05;;;;;;;19.70;69.65;94352.03;5012468;28;20263;-72
2022/08/13 00:45:20;;;;;;;9.98;5.28;;;;;;;19.70;69.63;94352.03;5012494;28;20232;-72
2022/08/13 00:50:34;;;;;;;3.72;3.00;;;;;;;19.74;69.44;94347.34;5012362;28;20228;-72
2022/08/13 00:53:02;;;;;;;6.65;3.33;;;;;;;19.72;69.21;94348.91;5012152;28;20205;-73
2022/08/13 00:55:29;;;;;;;3.55;3.05;;;;;;;19.75;69.28;94348.91;5012524;28;20224;-74
2022/08/13 00:57:56;;;;;;;6.43;3.33;;;;;;;19.80;68.96;94351.28;5012370;28;20205;-74
2022/08/13 01:00:26;;;;;;;7.18;2.88;;;;;;;19.87;70.22;94345.75;5012226;28;20627;-74
2022/08/13 01:02:56;;;;;;;4.30;2.90;;;;;;;19.75;70.94;94348.91;5012530;28;20682;-73
2022/08/13 01:05:25;;;;;;;5.55;3.05;;;;;;;19.76;71.17;94350.47;5012330;28;20189;-73
2022/08/13 01:07:53;;;;;;;5.72;3.05;;;;;;;19.83;70.70;94344.97;4999129;28;20208;-73
2022/08/13 01:10:21;;;;;;;3.90;2.95;;;;;;;19.79;70.15;94343.41;5012242;28;20201;-73
2022/08/13 01:12:52;;;;;;;5.50;3.80;;;;;;;19.79;68.76;94338.69;4999707;28;20240;-73
2022/08/13 01:15:20;;;;;;;4.75;4.00;;;;;;;19.70;70.35;94340.25;5011542;28;20286;-73
2022/08/13 01:17:53;;;;;;;3.85;2.90;;;;;;;19.78;69.54;94342.63;5012010;28;20232;-73
2022/08/13 01:20:27;;;;;;;4.50;3.85;;;;;;;19.71;69.44;94342.63;5011355;28;20200;-73
2022/08/13 01:22:55;;;;;;;3.45;2.67;;;;;;;19.72;68.93;94344.19;5012076;28;20645;-73
2022/08/13 01:25:25;;;;;;;5.97;2.80;;;;;;;19.65;69.67;94344.19;5011820;28;20201;-73
2022/08/13 01:27:53;;;;;;;3.42;2.60;;;;;;;19.61;70.03;94346.16;5011623;28;20291;-73
2022/08/13 01:30:23;;;;;;;3.33;2.20;;;;;;;19.58;69.88;94344.19;5011877;28;20204;-73
2022/08/13 01:32:50;;;;;;;3.33;2.50;;;;;;;19.60;70.16;94341.81;5011766;28;20212;-73
2022/08/13 01:35:18;;;;;;;3.08;2.30;;;;;;;19.57;69.74;94339.84;5011731;28;20197;-73
2022/08/13 01:37:54;;;;;;;3.83;2.50;;;;;;;19.63;69.92;94343.81;5011847;28;20232;-73
2022/08/13 01:40:22;;;;;;;4.22;3.20;;;;;;;19.66;68.93;94345.78;4998572;28;20247;-73
2022/08/13 01:42:50;;;;;;;3.80;3.40;;;;;;;19.67;69.16;94335.56;5011665;28;20240;-73
2022/08/13 01:45:19;;;;;;;3.33;3.00;;;;;;;19.70;68.85;94326.50;5011167;28;20211;-73
2022/08/13 01:50:33;;;;;;;5.15;2.92;;;;;;;19.67;69.39;94322.59;5011511;28;20263;-72
2022/08/13 01:53:02;;;;;;;2.50;2.30;;;;;;;19.71;69.29;94331.63;5011086;28;20201;-73
2022/08/13 01:55:39;;;;;;;3.58;2.55;;;;;;;19.74;69.85;94330.84;5010617;28;20232;-73
2022/08/13 01:58:08;;;;;;;5.40;3.65;;;;;;;19.72;69.46;94315.91;5010841;28;20280;-73
2022/08/13 02:00:37;;;;;;;2.40;2.17;;;;;;;19.75;69.59;94317.88;5010875;28;20201;-73
2022/08/13 02:03:05;;;;;;;3.20;2.88;;;;;;;19.63;70.16;94313.56;4998469;28;20655;-73
2022/08/13 02:05:36;;;;;;;4.28;3.38;;;;;;;19.76;70.17;94317.50;5011163;28;20296;-73
2022/08/13 02:08:03;;;;;;;4.03;2.97;;;;;;;19.86;70.49;94315.91;5011640;28;20489;-73
2022/08/13 02:10:30;;;;;;;3.60;2.67;;;;;;;19.93;70.07;94304.13;5010571;28;20607;-73
2022/08/13 02:12:58;;;;;;;6.70;3.13;;;;;;;19.83;70.83;94311.97;5010638;28;20263;-73
2022/08/13 02:15:25;;;;;;;6.90;3.17;;;;;;;19.91;71.00;94317.47;4997035;28;20233;-73
2022/08/13 02:17:52;;;;;;;4.45;3.83;;;;;;;19.92;70.29;94314.34;5010735;28;20237;-72
2022/08/13 02:20:19;;;;;;;4.70;4.20;;;;;;;19.86;70.19;94322.19;5010639;28;20198;-72
2022/08/13 02:22:46;;;;;;;5.97;4.13;;;;;;;19.78;70.79;94315.13;5010365;28;20332;-72
2022/08/13 02:25:15;;;;;;;4.93;3.58;;;;;;;19.86;71.37;94321.41;5010606;28;20211;-72
2022/08/13 02:27:42;;;;;;;5.22;2.60;;;;;;;19.78;70.16;94315.13;5010548;28;20197;-74
2022/08/13 02:30:14;;;;;;;5.05;4.10;;;;;;;19.69;70.25;94314.72;5011199;28;20197;-71
2022/08/13 02:32:41;;;;;;;4.22;3.03;;;;;;;19.42;70.75;94313.50;5010710;28;20255;-71
2022/08/13 02:35:09;;;;;;;4.95;4.00;;;;;;;19.31;70.77;94309.97;5010443;28;20259;-72
2022/08/13 02:37:37;;;;;;;4.57;2.83;;;;;;;19.30;71.35;94319.38;5010517;28;20312;-72
2022/08/13 02:41:38;;;;;;;3.63;2.35;;;;;;;19.37;70.99;94316.66;5010759;28;20209;-73
2022/08/13 02:42:55;;;;;;;3.05;2.50;;;;;;;19.36;71.25;94315.09;5010526;28;20208;-73
2022/08/13 02:45:25;;;;;;;5.00;4.03;;;;;;;19.42;71.48;94313.50;5010711;28;20299;-73
2022/08/13 02:47:52;;;;;;;3.08;2.63;;;;;;;19.39;71.62;94311.56;5010047;28;20296;-73
2022/08/13 02:50:21;;;;;;;2.80;2.15;;;;;;;19.44;72.18;94316.66;5010179;28;20722;-74
2022/08/13 02:52:49;;;;;;;3.08;2.67;;;;;;;19.44;71.63;94314.69;5010063;28;20201;-73
2022/08/13 02:55:15;;;;;;;4.22;2.72;;;;;;;19.56;71.45;94319.03;5010235;28;20632;-72
2022/08/13 02:57:43;;;;;;;5.38;2.97;;;;;;;19.65;72.39;94310.44;5009886;28;20462;-72
2022/08/13 03:00:11;;;;;;;6.75;2.72;;;;;;;19.65;72.61;94313.97;5010280;28;20204;-72
2022/08/13 03:02:44;;;;;;;3.67;2.88;;;;;;;19.68;72.64;94310.41;5010595;28;20244;-72
2022/08/13 03:05:14;;;;;;;4.60;2.72;;;;;;;19.59;72.54;94309.25;5010638;28;20660;-73
2022/08/13 03:07:42;;;;;;;4.13;3.05;;;;;;;19.55;72.04;94311.97;5010527;28;20540;-73
2022/08/13 03:10:11;;;;;;;3.42;2.60;;;;;;;19.65;70.92;94310.44;5010307;28;20204;-72
2022/08/13 03:12:41;;;;;;;4.60;3.90;;;;;;;19.48;72.08;94314.72;5010356;28;20292;-73
2022/08/13 03:15:10;;;;;;;3.95;2.97;;;;;;;19.31;72.71;94312.72;5009333;28;20327;-73
2022/08/13 03:17:38;;;;;;;4.15;3.45;;;;;;;19.32;73.14;94325.28;4996139;28;20634;-72
2022/08/13 03:20:08;;;;;;;3.30;2.70;;;;;;;19.51;73.14;94325.75;5008728;28;20201;-73
2022/08/13 03:22:47;;;;;;;4.65;2.83;;;;;;;19.30;72.71;94311.16;5009352;28;20205;-73
2022/08/13 03:25:14;;;;;;;4.90;3.90;;;;;;;19.22;73.29;94321.34;5009113;28;20205;-72
2022/08/13 03:27:42;;;;;;;3.38;2.65;;;;;;;19.28;73.50;94321.75;5008644;28;20731;-72
2022/08/13 03:30:11;;;;;;;3.80;3.03;;;;;;;19.42;73.81;94319.00;5008823;28;20616;-72
2022/08/13 03:32:41;;;;;;;3.60;2.88;;;;;;;19.43;73.36;94326.06;5009223;28;20198;-72
2022/08/13 03:35:10;;;;;;;4.72;3.13;;;;;;;19.29;73.95;94326.06;5009086;28;20213;-72
2022/08/13 03:37:37;;;;;;;3.00;2.42;;;;;;;19.29;73.64;94328.81;5008761;28;20319;-72
2022/08/13 03:40:06;;;;;;;3.90;2.85;;;;;;;19.40;71.80;94327.66;5008804;28;20208;-72
2022/08/13 03:42:33;;;;;;;4.75;3.45;;;;;;;19.57;71.92;94323.38;5009176;28;20205;-72
2022/08/13 03:45:00;;;;;;;5.20;4.32;;;;;;;19.74;72.80;94325.34;5008880;28;20871;-72
2022/08/13 03:47:27;;;;;;;3.50;2.63;;;;;;;19.78;72.69;94330.84;5008661;28;20239;-73
2022/08/13 03:49:56;;;;;;;4.78;3.10;;;;;;;19.83;72.16;94333.97;5008762;28;20201;-73
2022/08/13 03:52:23;;;;;;;3.67;2.78;;;;;;;19.87;71.74;94329.25;5009102;28;20339;-73
2022/08/13 03:54:50;;;;;;;3.20;2.53;;;;;;;20.02;71.70;94337.50;5008265;28;20581;-73
2022/08/13 03:57:19;;;;;;;7.32;4.40;;;;;;;20.04;71.95;94322.19;5008346;28;20308;-73
2022/08/13 03:59:46;;;;;;;4.45;4.03;;;;;;;19.89;72.43;94334.38;4995129;28;20272;-73
2022/08/13 04:02:15;;;;;;;7.00;4.50;;;;;;;19.76;72.12;94335.94;5008971;28;20200;-73
2022/08/13 04:04:46;;;;;;;5.10;4.10;;;;;;;19.65;72.06;94330.44;5010763;28;20291;-73
2022/08/13 04:07:15;;;;;;;6.35;3.10;;;;;;;19.81;71.89;94328.09;5012239;28;20197;-73
2022/08/13 04:09:42;;;;;;;4.18;2.85;;;;;;;19.91;71.76;94339.47;5012239;28;20315;-73
2022/08/13 04:12:12;;;;;;;4.72;3.05;;;;;;;19.93;71.73;94335.16;5012632;28;20197;-73
2022/08/13 04:14:39;;;;;;;4.47;3.28;;;;;;;20.00;70.80;94334.34;4960465;28;1498771;-73
2022/08/13 04:17:10;;;;;;;5.38;3.00;;;;;;;19.99;70.76;94330.03;5013477;28;20323;-73
2022/08/13 04:19:37;;;;;;;7.28;3.70;;;;;;;20.14;70.54;94331.59;5013033;28;20220;-73
2022/08/13 04:22:05;;;;;;;5.50;3.00;;;;;;;20.08;70.43;94322.19;5012714;28;20263;-73
2022/08/13 04:24:34;;;;;;;5.20;4.32;;;;;;;20.02;70.85;94340.25;5013128;28;20208;-72
2022/08/13 04:27:02;;;;;;;7.45;3.58;;;;;;;19.74;72.50;94336.34;5012638;28;20205;-72
2022/08/13 04:29:30;;;;;;;6.03;3.60;;;;;;;19.80;72.32;94340.28;5012894;28;20289;-72
2022/08/13 04:31:57;;;;;;;4.22;2.88;;;;;;;19.81;72.09;94339.09;5012479;28;20572;-73
2022/08/13 04:34:26;;;;;;;4.93;3.30;;;;;;;19.74;72.75;94333.59;5012896;28;20826;-74
2022/08/13 04:36:53;;;;;;;7.25;4.93;;;;;;;19.67;73.15;94333.59;5012569;28;20287;-74
2022/08/13 04:39:21;;;;;;;7.47;3.70;;;;;;;19.68;73.67;94331.63;5012503;28;20560;-74
2022/08/13 04:41:49;;;;;;;5.25;3.10;;;;;;;19.61;73.71;94321.41;5012513;28;20208;-74
2022/08/13 04:44:16;;;;;;;6.55;3.72;;;;;;;19.69;73.33;94325.72;5012530;28;20209;-74
2022/08/13 04:46:43;;;;;;;5.07;3.40;;;;;;;19.67;72.96;94330.84;5003771;28;20679;-74
2022/08/13 04:49:11;;;;;;;4.60;3.50;;;;;;;19.85;73.13;94331.63;5012846;28;20288;-73
2022/08/13 04:51:39;;;;;;;7.47;4.50;;;;;;;19.93;71.95;94326.13;4999756;28;20207;-74
2022/08/13 04:54:06;;;;;;;5.90;5.15;;;;;;;20.16;71.88;94323.72;5012211;28;20224;-74
2022/08/13 04:56:34;;;;;;;6.20;4.82;;;;;;;20.04;72.36;94326.91;5011795;28;20209;-73
2022/08/13 04:59:05;;;;;;;5.80;4.90;;;;;;;19.80;73.35;94334.00;5012563;28;20347;-74
2022/08/13 05:01:32;;;;;;;3.78;3.30;;;;;;;19.83;73.81;94338.69;5011918;28;20209;-74
2022/08/13 05:03:59;;;;;;;4.97;3.47;;;;;;;19.78;74.10;94328.88;5012355;28;20205;-74
2022/08/13 05:06:26;;;;;;;5.60;3.95;;;;;;;19.85;73.43;94336.31;5012161;28;20209;-74
2022/08/13 05:08:53;;;;;;;6.40;3.47;;;;;;;19.94;73.13;94331.22;5012492;28;20209;-73
2022/08/13 05:11:20;;;;;;;4.70;3.20;;;;;;;19.85;73.42;94339.84;5012162;28;20681;-74
2022/08/13 05:13:48;;;;;;;5.65;3.40;;;;;;;20.01;73.11;94333.19;5012023;28;20247;-74
2022/08/13 05:16:17;;;;;;;8.30;3.78;;;;;;;19.84;73.09;94332.00;5011059;28;20201;-72
2022/08/13 05:18:46;;;;;;;7.32;4.10;;;;;;;20.00;73.01;94331.59;5012181;28;20594;-73
2022/08/13 05:21:14;;;;;;;5.43;3.58;;;;;;;20.10;72.73;94325.28;5012021;28;20228;-73
2022/08/13 05:23:43;;;;;;;4.97;3.38;;;;;;;19.96;72.42;94326.09;5008484;28;20200;-73
2022/08/13 05:26:11;;;;;;;8.18;3.78;;;;;;;20.14;71.83;94326.09;5010283;28;20205;-73
2022/08/13 05:28:38;;;;;;;6.50;3.70;;;;;;;20.20;71.21;94330.81;5011383;28;20611;-73
2022/08/13 05:31:05;;;;;;;5.13;4.45;;;;;;;20.37;70.09;94328.41;5010613;28;20205;-73
2022/08/13 05:33:35;;;;;;;6.70;4.90;;;;;;;20.50;70.13;94326.81;5011385;28;20276;-74
2022/08/13 05:36:04;;;;;;;5.80;4.55;;;;;;;20.67;68.61;94330.69;5012023;28;20280;-74
2022/08/13 05:38:34;;;;;;;6.18;4.53;;;;;;;20.56;68.02;94337.03;5011584;28;20715;-74
2022/08/13 05:41:03;;;;;;;4.78;4.28;;;;;;;20.38;69.48;94336.28;5011136;28;20676;-74
2022/08/13 05:43:35;;;;;;;8.32;4.90;;;;;;;20.74;68.58;94341.69;5003755;28;20246;-73
2022/08/13 05:46:04;;;;;;;5.20;4.30;;;;;;;20.84;68.12;94336.13;5011365;28;20190;-73
2022/08/13 05:48:34;;;;;;;5.20;4.57;;;;;;;20.92;66.59;94342.38;5011672;28;20805;-73
2022/08/13 05:51:04;;;;;;;5.28;4.22;;;;;;;20.67;67.25;94338.94;5011146;28;20189;-73
2022/08/13 05:53:32;;;;;;;6.68;3.40;;;;;;;20.84;67.10;94340.84;5010394;28;20200;-73
2022/08/13 05:55:59;;;;;;;3.65;3.00;;;;;;;21.09;66.83;94344.25;5010637;28;20215;-77
2022/08/13 05:58:26;;;;;;;5.72;4.63;;;;;;;21.42;65.43;94328.38;5011268;28;20241;-78
2022/08/13 06:03:39;;;;;;;7.32;4.80;;;;;;;21.32;65.77;94337.50;5011250;28;20200;-77
2022/08/13 06:06:08;;;;;;;5.93;4.38;;;;;;;21.11;65.59;94330.88;5011495;28;20212;-78
2022/08/13 06:08:36;;;;;;;4.75;3.60;;;;;;;21.27;65.17;94331.22;5010534;28;20560;-78
2022/08/13 06:11:05;;;;;;;4.32;3.00;;;;;;;21.43;65.18;94335.44;5010743;28;20201;-77
2022/08/13 06:13:33;;;;;;;3.92;2.85;;;;;;;21.61;64.92;94333.34;5010291;28;20201;-77
2022/08/13 06:16:03;;;;;;;5.13;3.42;;;;;;;21.51;64.68;94334.19;5010706;28;20331;-77
2022/08/13 06:18:34;;;;;;;5.70;4.55;;;;;;;21.72;64.49;94334.06;5010254;28;20782;-73
2022/08/13 06:21:04;;;;;;;7.15;5.05;;;;;;;21.81;64.01;94337.13;5010613;28;20216;-73
2022/08/13 06:23:33;;;;;;;6.20;5.30;;;;;;;21.76;64.12;94334.81;5010386;28;20193;-73
2022/08/13 06:26:00;;;;;;;5.97;5.30;;;;;;;21.72;64.79;94334.06;5010082;28;20209;-72
2022/08/13 06:28:30;;;;;;;4.20;2.90;;;;;;;21.84;65.23;94330.81;5009900;28;20217;-73
2022/08/13 06:31:00;;;;;;;6.43;4.63;;;;;;;22.00;64.98;94329.53;5008406;28;20273;-73
2022/08/13 06:33:27;;;;;;;6.68;5.32;;;;;;;22.02;64.59;94329.88;5004217;28;20204;-74
2022/08/13 06:35:55;;;;;;;7.78;5.68;;;;;;;21.91;63.93;94333.50;5010181;28;20255;-74
2022/08/13 06:38:27;;;;;;;6.97;4.20;;;;;;;22.11;64.01;94321.94;5010002;28;20244;-73
2022/08/13 06:40:59;;;;;;;5.75;4.30;;;;;;;22.20;63.62;94331.28;5010254;28;20205;-73
2022/08/13 06:43:27;;;;;;;9.02;4.50;;;;;;;22.18;63.75;94338.41;5010065;28;20190;-73
2022/08/13 06:45:55;;;;;;;8.23;6.22;;;;;;;22.18;63.56;94327.38;5009923;28;20613;-72
2022/08/13 06:48:22;;;;;;;9.23;4.38;;;;;;;22.26;62.90;94326.91;5010014;28;20209;-73
2022/08/13 06:50:50;;;;;;;7.05;3.75;;;;;;;22.05;63.96;94320.78;5008560;28;20288;-73
2022/08/13 06:53:18;;;;;;;7.35;4.80;;;;;;;21.85;64.39;94321.34;5009787;28;20216;-73
2022/08/13 06:55:49;;;;;;;6.88;4.70;;;;;;;21.95;64.13;94323.22;5010420;28;20205;-73
2022/08/13 06:58:17;;;;;;;5.65;4.20;;;;;;;21.62;64.68;94323.88;4997321;28;20220;-74
2022/08/13 07:00:45;;;;;;;6.40;4.60;;;;;;;21.56;66.34;94331.03;5009770;28;20220;-75
2022/08/13 07:03:12;;;;;;;6.57;5.80;;;;;;;21.76;65.50;94329.28;5009785;28;20261;-73
2022/08/13 07:05:41;;;;;;;10.65;6.70;;;;;;;22.15;64.02;94325.41;5009686;28;20209;-73
2022/08/13 07:08:11;;;;;;;8.25;6.63;;;;;;;21.91;64.35;94327.19;5010219;28;20213;-73
2022/08/13 07:10:43;;;;;;;9.43;6.63;;;;;;;21.79;64.87;94336.75;5009778;28;20193;-74
2022/08/13 07:13:11;;;;;;;8.52;7.05;;;;;;;21.79;64.54;94339.50;5010009;28;20207;-74
2022/08/13 07:15:40;;;;;;;10.55;5.05;;;;;;;21.88;64.25;94339.81;5005248;28;20276;-74
2022/08/13 07:18:08;;;;;;;7.28;6.43;;;;;;;22.39;63.62;94327.19;5001079;28;20228;-74
2022/08/13 07:20:36;;;;;;;9.93;7.65;;;;;;;22.09;63.64;94329.84;5009811;28;20259;-74
2022/08/13 07:23:03;;;;;;;8.73;6.20;;;;;;;22.41;62.70;94335.84;5009924;28;20231;-75
2022/08/13 07:25:30;;;;;;;8.75;6.18;;;;;;;22.58;62.01;94339.56;5009704;28;20648;-75
2022/08/13 07:27:59;;;;;;;10.52;7.25;;;;;;;22.31;62.35;94336.69;5009495;28;20780;-74
2022/08/13 07:30:28;;;;;;;6.95;4.95;;;;;;;22.64;61.51;94335.97;5009361;28;20217;-74
2022/08/13 07:32:57;;;;;;;5.97;4.53;;;;;;;22.88;61.14;94338.88;5009505;28;20197;-73
2022/08/13 07:35:24;;;;;;;6.65;4.30;;;;;;;22.54;61.68;94334.13;5009526;28;20197;-75
2022/08/13 07:37:52;;;;;;;6.72;4.35;;;;;;;22.45;62.46;94339.31;5008569;28;20316;-74
2022/08/13 07:40:20;;;;;;;8.48;4.53;;;;;;;22.20;63.37;94341.56;5011727;28;20319;-73
2022/08/13 07:42:49;;;;;;;7.75;6.28;;;;;;;22.41;63.58;94330.31;5013495;28;20215;-74
2022/08/13 07:45:24;;;;;;;7.95;6.13;;;;;;;22.80;61.51;94340.16;5000408;28;20251;-75
2022/08/13 07:47:54;;;;;;;7.95;6.68;;;;;;;22.60;62.12;94332.44;5008370;28;20279;-75
2022/08/13 07:50:22;;;;;;;7.22;5.72;;;;;;;23.09;61.04;94330.31;5013506;28;20204;-74
2022/08/13 07:52:55;;;;;;;6.72;5.88;;;;;;;23.26;59.94;94325.75;5013163;28;20335;-74
2022/08/13 07:55:23;;;;;;;7.75;6.00;;;;;;;23.29;60.20;94327.69;5012859;28;20697;-74
2022/08/13 07:57:50;;;;;;;8.50;5.93;;;;;;;23.14;59.85;94318.78;5013124;28;20240;-74
2022/08/13 08:00:24;;;;;;;6.82;5.82;;;;;;;23.69;58.42;94323.16;5012564;28;20235;-73
2022/08/13 08:03:01;;;;;;;10.40;6.15;;;;;;;24.23;57.49;94323.09;5012813;28;20775;-74
2022/08/13 08:05:31;;;;;;;7.25;5.43;;;;;;;24.40;56.02;94322.78;5012729;28;20196;-73
2022/08/13 08:08:00;;;;;;;7.38;5.70;;;;;;;24.30;57.40;94322.97;5012440;28;20287;-73
2022/08/13 08:10:27;;;;;;;6.80;5.72;;;;;;;24.01;56.24;94320.66;5012643;28;20614;-74
2022/08/13 08:12:59;;;;;;;9.63;5.88;;;;;;;24.10;57.35;94317.34;4996503;28;20228;-74
2022/08/13 08:15:27;;;;;;;7.68;5.90;;;;;;;24.04;58.40;94319.84;4999265;28;20237;-74
2022/08/13 08:17:57;;;;;;;7.03;5.85;;;;;;;23.97;57.08;94328.25;5012703;28;20201;-74
2022/08/13 08:20:24;;;;;;;12.60;6.20;;;;;;;24.21;57.09;94319.94;5011696;28;20205;-74
2022/08/13 08:22:52;;;;;;;6.63;5.70;;;;;;;24.17;56.37;94319.22;5012052;28;20244;-75
2022/08/13 08:25:20;;;;;;;7.07;5.90;;;;;;;23.93;57.11;94321.97;5012484;28;20216;-75
2022/08/13 08:27:47;;;;;;;8.45;5.03;;;;;;;24.05;57.22;94321.38;5012593;28;20205;-74
2022/08/13 08:30:16;;;;;;;8.07;5.80;;;;;;;23.63;57.67;94319.31;5012668;28;20213;-74
2022/08/13 08:32:44;;;;;;;7.32;5.53;;;;;;;23.78;57.54;94326.16;5012305;28;20288;-75
2022/08/13 08:35:13;;;;;;;8.75;6.10;;;;;;;23.60;58.14;94314.63;5012413;28;20263;-73
2022/08/13 08:43:28;;;;;;;8.02;5.40;;;;;;;23.46;59.41;94304.53;4970917;28;20613;-74
2022/08/13 08:45:56;;;;;;;5.95;4.93;;;;;;;24.12;57.74;94312.19;4995055;28;20643;-73
2022/08/13 08:48:23;;;;;;;6.95;5.55;;;;;;;24.58;56.54;94308.59;5012338;28;20213;-74
2022/08/13 08:50:51;;;;;;;6.45;5.55;;;;;;;24.13;56.44;94308.22;5011865;28;20209;-74
2022/08/13 08:53:21;;;;;;;9.18;6.13;;;;;;;24.02;56.67;94302.88;4992551;28;20226;-74
2022/08/13 08:55:48;;;;;;;7.50;6.05;;;;;;;24.69;55.50;94303.63;5006266;28;20209;-73
2022/08/13 08:58:16;;;;;;;7.80;5.50;;;;;;;24.38;55.96;94308.56;5012127;28;20359;-73
2022/08/13 09:00:45;;;;;;;9.25;6.28;;;;;;;23.98;57.11;94304.91;5011600;28;20201;-73
2022/08/13 09:03:13;;;;;;;8.48;6.38;;;;;;;24.02;56.92;94305.63;5011807;28;20283;-72
2022/08/13 09:05:40;;;;;;;10.25;6.75;;;;;;;23.87;58.12;94307.06;5011783;28;20205;-73
2022/08/13 09:08:08;;;;;;;8.65;6.75;;;;;;;23.67;58.19;94304.22;5011765;28;20572;-74
2022/08/13 09:10:37;;;;;;;8.77;6.32;;;;;;;23.24;59.35;94309.56;5011613;28;20248;-72
2022/08/13 09:13:04;;;;;;;12.93;6.38;;;;;;;23.21;60.16;94315.94;5011820;28;20271;-72
2022/08/13 09:15:34;;;;;;;11.85;6.05;;;;;;;23.45;59.98;94311.25;4998315;28;20236;-73
2022/08/13 09:18:02;;;;;;;7.50;5.90;;;;;;;23.48;59.51;94304.13;5011337;28;20309;-72
2022/08/13 09:20:33;;;;;;;8.45;6.28;;;;;;;23.76;58.66;94302.91;5010910;28;20730;-72
2022/08/13 09:23:07;;;;;;;9.07;6.68;;;;;;;23.76;59.08;94306.47;5011381;28;20213;-74
2022/08/13 09:25:43;;;;;;;10.02;6.47;;;;;;;23.73;59.38;94310.84;5011389;28;20665;-73
2022/08/13 09:28:10;;;;;;;8.52;7.20;;;;;;;23.15;60.41;94317.59;5010967;28;20201;-72
2022/08/13 09:30:37;;;;;;;9.13;6.93;;;;;;;23.10;61.13;94320.81;5011485;28;20213;-75
2022/08/13 09:33:04;;;;;;;11.00;7.35;;;;;;;23.12;62.46;94315.66;5006960;28;20288;-73
2022/08/13 09:35:33;;;;;;;9.43;6.53;;;;;;;23.14;64.21;94321.56;5000033;28;20201;-74
2022/08/13 09:38:02;;;;;;;10.43;7.72;;;;;;;22.92;64.77;94314.75;5011005;28;20208;-73
2022/08/13 09:40:30;;;;;;;9.27;7.03;;;;;;;22.66;66.47;94314.25;5010914;28;20251;-74
2022/08/13 09:43:02;;;;;;;11.73;7.20;;;;;;;22.72;66.92;94305.50;5010835;28;20676;-75
2022/08/13 09:45:33;;;;;;;12.55;8.18;;;;;;;22.73;66.67;94309.81;5011367;28;20189;-74
2022/08/13 09:48:02;;;;;;;10.40;7.90;;;;;;;23.01;65.82;94312.25;5011144;28;20284;-75
2022/08/13 09:50:29;;;;;;;11.27;7.97;;;;;;;23.16;65.61;94305.34;5010767;28;20259;-75
2022/08/13 09:52:56;;;;;;;9.25;7.70;;;;;;;23.64;64.00;94293.22;5010425;28;20209;-73
2022/08/13 09:55:23;;;;;;;10.95;7.53;;;;;;;23.64;63.39;94309.81;5010850;28;20263;-74
2022/08/13 09:57:51;;;;;;;10.23;7.43;;;;;;;23.67;64.01;94303.44;5011266;28;20201;-74
2022/08/13 10:00:24;;;;;;;11.60;8.13;;;;;;;23.61;63.25;94305.13;5010679;28;20233;-73
2022/08/13 10:02:54;;;;;;;11.90;7.97;;;;;;;23.28;64.24;94315.84;5009739;28;20259;-74
2022/08/13 10:05:21;;;;;;;13.35;7.78;;;;;;;23.40;64.26;94309.72;5011591;28;20645;-73
2022/08/13 10:07:48;;;;;;;9.70;7.57;;;;;;;22.86;65.88;94310.88;5011461;28;20204;-74
2022/08/13 10:10:15;;;;;;;11.88;8.13;;;;;;;23.03;67.47;94307.09;5012451;28;20220;-74
2022/08/13 10:12:43;;;;;;;9.10;7.22;;;;;;;23.04;68.47;94309.47;5010831;28;20201;-72
2022/08/13 10:15:12;;;;;;;14.02;8.07;;;;;;;22.76;70.13;94306.25;5010367;28;20738;-73
2022/08/13 10:17:49;;;;;;;12.77;7.97;;;;;;;22.57;71.31;94311.19;4997919;28;20213;-75
2022/08/13 10:20:21;;;;;;;13.18;9.52;;;;;;;22.13;73.51;94308.53;4996655;28;20232;-74
2022/08/13 10:22:49;;;;;;;13.40;9.55;;;;;;;21.63;76.09;94308.91;5010306;28;20274;-74
2022/08/13 10:25:16;;;;;;;14.02;10.20;;;;;;;21.48;77.69;94310.19;5010223;28;20212;-73
2022/08/13 10:27:44;;;;;;;21.05;12.10;;;;;;;21.43;78.75;94319.69;5010389;28;20263;-73
2022/08/13 10:30:12;;;;;;;14.55;10.30;;;;;;;21.68;80.24;94305.72;5010266;28;20627;-73
2022/08/13 10:32:39;;;;;;;22.00;13.43;;;;;;;21.36;80.87;94311.47;5009529;28;20695;-74
2022/08/13 10:35:09;;;;;;;15.43;9.80;;;;;;;21.44;81.93;94301.19;5009551;28;20240;-74
2022/08/13 10:37:44;;;;;;;13.70;10.07;;;;;;;21.51;81.49;94301.13;5010839;28;20259;-75
2022/08/13 10:40:14;;;;;;;14.40;9.85;;;;;;;21.48;81.12;94296.41;5011263;28;20217;-75
2022/08/13 10:42:44;;;;;;;12.02;7.03;;;;;;;21.49;80.67;94292.47;5011049;28;20204;-76
2022/08/13 10:45:12;;;;;;;12.80;9.70;;;;;;;21.67;81.71;94293.13;5010963;28;20283;-76
2022/08/13 10:47:46;;;;;;;9.00;6.03;;;;;;;21.71;81.13;94293.88;5010760;28;20200;-76
2022/08/13 10:50:15;;;;;;;11.18;6.90;;;;;;;21.68;82.47;94289.19;4990699;28;20739;-75
2022/08/13 10:52:42;;;;;;;11.98;7.22;;;;;;;21.86;83.50;94298.09;4992454;28;20228;-75
2022/08/13 10:55:11;;;;;;;11.35;6.65;;;;;;;22.12;81.96;94295.91;5010379;28;20221;-75
2022/08/13 10:57:40;;;;;;;10.65;7.20;;;;;;;22.04;81.59;94299.91;5010374;28;20204;-75
2022/08/13 11:00:08;;;;;;;11.57;7.15;;;;;;;22.19;81.90;94302.13;5010032;28;20232;-75
2022/08/13 11:02:37;;;;;;;10.38;7.07;;;;;;;22.59;81.03;94297.75;5010210;28;20200;-75
2022/08/13 11:05:05;;;;;;;13.32;7.60;;;;;;;23.00;80.55;94299.63;5009878;28;20223;-76
2022/08/13 11:07:33;;;;;;;12.43;8.93;;;;;;;23.00;78.42;94294.13;5009738;28;20196;-76
2022/08/13 11:10:00;;;;;;;7.45;5.47;;;;;;;23.16;78.27;94302.59;5010329;28;20212;-76
2022/08/13 11:12:27;;;;;;;11.35;6.13;;;;;;;23.10;75.97;94287.66;5010324;28;20201;-76
2022/08/13 11:14:55;;;;;;;7.05;5.00;;;;;;;22.98;74.68;94286.25;5005011;28;20600;-76
2022/08/13 11:17:22;;;;;;;11.20;7.55;;;;;;;22.84;74.30;94280.91;5001203;28;20292;-76
2022/08/13 11:19:49;;;;;;;8.55;7.43;;;;;;;23.08;75.51;94272.72;5013205;28;20230;-76
2022/08/13 11:22:16;;;;;;;10.27;8.38;;;;;;;23.26;75.66;94274.00;5014268;28;20209;-75
2022/08/13 11:24:44;;;;;;;10.20;7.93;;;;;;;23.14;76.07;94260.75;5013860;28;20274;-75
2022/08/13 11:27:11;;;;;;;9.25;7.32;;;;;;;22.90;74.67;94261.91;5013784;28;20718;-75
2022/08/13 11:29:38;;;;;;;10.55;7.40;;;;;;;23.23;75.01;94263.81;5014130;28;20205;-75
2022/08/13 11:32:05;;;;;;;11.18;7.90;;;;;;;23.20;74.08;94259.09;5013664;28;20259;-76
2022/08/13 11:34:33;;;;;;;12.60;7.57;;;;;;;23.48;74.61;94273.69;5013723;28;20217;-75
2022/08/13 11:37:00;;;;;;;12.95;7.45;;;;;;;23.52;74.58;94263.38;5013361;28;20204;-75
2022/08/13 11:39:27;;;;;;;8.63;7.15;;;;;;;23.18;73.04;94272.56;5013658;28;20233;-74
2022/08/13 11:41:55;;;;;;;7.65;6.82;;;;;;;23.10;72.98;94265.53;5013705;28;20274;-75
2022/08/13 11:44:22;;;;;;;7.38;6.15;;;;;;;22.76;72.55;94267.56;5013776;28;20205;-75
2022/08/13 11:46:48;;;;;;;10.63;7.20;;;;;;;23.18;73.35;94278.09;5012801;28;20259;-74
2022/08/13 11:49:15;;;;;;;8.45;7.25;;;;;;;23.11;72.02;94283.69;5013796;28;20201;-74
2022/08/13 11:51:44;;;;;;;8.13;7.05;;;;;;;22.58;73.21;94274.09;5013410;28;20287;-75